createdAt,value
2018-04-10T00:41:19.595Z,963.82
2018-04-10T00:42:19.509Z,963.82
2018-04-10T00:43:19.425Z,963.80
2018-04-10T00:44:19.359Z,963.81
2018-04-10T00:45:19.271Z,963.85
2018-04-10T00:46:19.206Z,963.87
2018-04-10T00:47:19.117Z,963.79
2018-04-10T00:48:19.052Z,963.80
2018-04-10T00:49:18.965Z,963.82
2018-04-10T00:50:18.897Z,963.83
2018-04-10T00:51:18.814Z,963.78
2018-04-10T00:52:18.739Z,963.83
2018-04-10T00:53:18.649Z,963.80
2018-04-10T00:54:18.592Z,963.78
2018-04-10T00:55:18.507Z,963.80
2018-04-10T00:56:18.431Z,963.80
2018-04-10T00:57:18.350Z,963.84
2018-04-10T00:58:18.279Z,963.80
2018-04-10T00:59:18.196Z,963.84
2018-04-10T01:00:18.128Z,963.83
2018-04-10T01:01:18.050Z,963.82
2018-04-10T01:02:17.984Z,963.86
2018-04-10T01:03:17.886Z,963.85
2018-04-10T01:04:17.823Z,963.85
2018-04-10T01:05:17.734Z,963.92
2018-04-10T01:06:17.667Z,963.90
2018-04-10T01:07:17.581Z,963.86
2018-04-10T01:08:17.514Z,963.89
2018-04-10T01:09:17.428Z,963.81
2018-04-10T01:10:17.358Z,963.80
2018-04-10T01:11:17.272Z,963.79
2018-04-10T01:12:17.205Z,963.82
2018-04-10T01:13:17.127Z,963.80
2018-04-10T01:14:17.046Z,963.79
2018-04-10T01:15:16.968Z,963.80
2018-04-10T01:16:16.898Z,963.80
2018-04-10T01:17:16.812Z,963.85
2018-04-10T01:18:16.752Z,963.87
2018-04-10T01:19:16.658Z,963.88
2018-04-10T01:20:16.591Z,963.89
2018-04-10T01:21:16.506Z,963.89
2018-04-10T01:22:16.436Z,963.86
2018-04-10T01:23:16.350Z,963.87
2018-04-10T01:24:16.279Z,963.86
2018-04-10T01:25:16.195Z,963.87
2018-04-10T01:26:16.130Z,963.87
2018-04-10T01:27:16.048Z,963.88
2018-04-10T01:28:15.974Z,963.86
2018-04-10T01:29:15.895Z,963.86
2018-04-10T01:30:15.821Z,963.87
2018-04-10T01:31:15.735Z,963.83
2018-04-10T01:32:15.667Z,963.82
2018-04-10T01:33:15.584Z,963.81
2018-04-10T01:34:15.504Z,963.79
2018-04-10T01:35:15.437Z,963.77
2018-04-10T01:36:15.353Z,963.75
2018-04-10T01:37:15.282Z,963.77
2018-04-10T01:38:15.196Z,963.79
2018-04-10T01:39:15.128Z,963.73
2018-04-10T01:40:15.043Z,963.77
2018-04-10T01:41:14.973Z,963.77
2018-04-10T01:42:14.894Z,963.80
2018-04-10T01:43:14.820Z,963.79
2018-04-10T01:44:14.734Z,963.85
2018-04-10T01:45:14.689Z,963.84
2018-04-10T01:46:14.580Z,963.85
2018-04-10T01:47:14.510Z,963.86
2018-04-10T01:48:14.425Z,963.86
2018-04-10T01:49:14.359Z,963.79
2018-04-10T01:50:14.272Z,963.83
2018-04-10T01:51:14.202Z,963.82
2018-04-10T01:52:14.117Z,963.79
2018-04-10T01:53:14.049Z,963.79
2018-04-10T01:54:13.977Z,963.82
2018-04-10T01:55:13.896Z,963.80
2018-04-10T01:56:13.807Z,963.79
2018-04-10T01:57:13.741Z,963.79
2018-04-10T01:58:13.654Z,963.82
2018-04-10T01:59:13.588Z,963.81
2018-04-10T02:00:13.502Z,963.82
2018-04-10T02:01:13.429Z,963.81
2018-04-10T02:02:13.349Z,963.80
2018-04-10T02:03:13.281Z,963.82
2018-04-10T02:04:13.195Z,963.80
2018-04-10T02:05:13.124Z,963.77
2018-04-10T02:06:13.037Z,963.77
2018-04-10T02:07:12.967Z,963.76
2018-04-10T02:08:12.884Z,963.79
2018-04-10T02:09:12.815Z,963.78
2018-04-10T02:10:12.727Z,963.72
2018-04-10T02:11:12.659Z,963.75
2018-04-10T02:12:12.576Z,963.71
2018-04-10T02:13:12.503Z,963.70
2018-04-10T02:14:12.421Z,963.70
2018-04-10T02:15:12.352Z,963.69
2018-04-10T02:16:12.265Z,963.71
2018-04-10T02:17:12.195Z,963.68
2018-04-10T02:18:12.109Z,963.65
2018-04-10T02:19:12.041Z,963.65
2018-04-10T02:20:11.957Z,963.67
2018-04-10T02:21:11.884Z,963.67
2018-04-10T02:22:11.804Z,963.67
2018-04-10T02:23:11.731Z,963.64
2018-04-10T02:24:11.644Z,963.67
2018-04-10T02:25:11.578Z,963.61
2018-04-10T02:26:11.519Z,963.62
2018-04-10T02:27:11.421Z,963.56
2018-04-10T02:28:11.337Z,963.57
2018-04-10T02:29:11.267Z,963.60
2018-04-10T02:30:11.181Z,963.61
2018-04-10T02:31:11.114Z,963.59
2018-04-10T02:32:11.025Z,963.62
2018-04-10T02:33:10.958Z,963.57
2018-04-10T02:34:10.873Z,963.55
2018-04-10T02:35:10.803Z,963.56
2018-04-10T02:36:10.718Z,963.56
2018-04-10T02:37:10.672Z,963.58
2018-04-10T02:38:10.565Z,963.52
2018-04-10T02:39:10.499Z,963.56
2018-04-10T02:40:10.410Z,963.57
2018-04-10T02:41:10.341Z,963.59
2018-04-10T02:42:10.250Z,963.61
2018-04-10T02:43:10.186Z,963.61
2018-04-10T02:44:10.100Z,963.66
2018-04-10T02:45:10.026Z,963.67
2018-04-10T02:46:09.942Z,963.67
2018-04-10T02:47:09.875Z,963.67
2018-04-10T02:48:09.790Z,963.67
2018-04-10T02:49:09.717Z,963.67
2018-04-10T02:50:09.635Z,963.65
2018-04-10T02:51:09.566Z,963.67
2018-04-10T02:52:09.475Z,963.68
2018-04-10T02:53:09.409Z,963.67
2018-04-10T02:54:09.321Z,963.69
2018-04-10T02:55:09.251Z,963.64
2018-04-10T02:56:09.170Z,963.68
2018-04-10T02:57:09.101Z,963.69
2018-04-10T02:58:09.016Z,963.67
2018-04-10T02:59:08.944Z,963.68
2018-04-10T03:00:08.855Z,963.67
2018-04-10T03:01:08.786Z,963.67
2018-04-10T03:02:08.703Z,963.62
2018-04-10T03:03:08.642Z,963.62
2018-04-10T03:04:08.545Z,963.62
2018-04-10T03:05:08.476Z,963.63
2018-04-10T03:06:08.394Z,963.65
2018-04-10T03:07:08.324Z,963.66
2018-04-10T03:08:08.237Z,963.65
2018-04-10T03:09:08.167Z,963.62
2018-04-10T03:10:08.079Z,963.59
2018-04-10T03:11:08.015Z,963.58
2018-04-10T03:12:07.924Z,963.59
2018-04-10T03:13:07.856Z,963.58
2018-04-10T03:14:07.768Z,963.56
2018-04-10T03:15:07.702Z,963.57
2018-04-10T03:16:07.616Z,963.54
2018-04-10T03:17:07.548Z,963.54
2018-04-10T03:18:07.457Z,963.53
2018-04-10T03:19:07.391Z,963.51
2018-04-10T03:20:07.305Z,963.52
2018-04-10T03:21:07.236Z,963.50
2018-04-10T03:22:07.150Z,963.52
2018-04-10T03:23:07.080Z,963.51
2018-04-10T03:24:06.991Z,963.48
2018-04-10T03:25:06.923Z,963.47
2018-04-10T03:26:06.838Z,963.44
2018-04-10T03:27:06.769Z,963.47
2018-04-10T03:28:06.683Z,963.48
2018-04-10T03:29:06.612Z,963.50
2018-04-10T03:30:06.528Z,963.49
2018-04-10T03:31:06.457Z,963.49
2018-04-10T03:32:06.371Z,963.54
2018-04-10T03:33:06.301Z,963.55
2018-04-10T03:34:06.220Z,963.49
2018-04-10T03:35:06.144Z,963.52
2018-04-10T03:36:06.060Z,963.51
2018-04-10T03:37:05.993Z,963.50
2018-04-10T03:38:05.903Z,963.49
2018-04-10T03:39:05.837Z,963.51
2018-04-10T03:40:05.752Z,963.50
2018-04-10T03:41:05.680Z,963.46
2018-04-10T03:42:05.592Z,963.47
2018-04-10T03:43:05.525Z,963.47
2018-04-10T03:44:05.435Z,963.45
2018-04-10T03:45:05.368Z,963.50
2018-04-10T03:46:05.284Z,963.50
2018-04-10T03:47:05.213Z,963.53
2018-04-10T03:48:05.137Z,963.56
2018-04-10T03:49:05.056Z,963.57
2018-04-10T03:50:04.975Z,963.57
2018-04-10T03:51:04.901Z,963.56
2018-04-10T03:52:04.821Z,963.59
2018-04-10T03:53:04.745Z,963.58
2018-04-10T03:54:04.662Z,963.51
2018-04-10T03:55:04.590Z,963.54
2018-04-10T03:56:04.505Z,963.52
2018-04-10T03:57:04.436Z,963.52
2018-04-10T03:58:04.359Z,963.50
2018-04-10T03:59:04.291Z,963.45
2018-04-10T04:00:04.191Z,963.46
2018-04-10T04:01:04.128Z,963.46
2018-04-10T04:02:04.038Z,963.43
2018-04-10T04:03:03.970Z,963.44
2018-04-10T04:04:03.882Z,963.39
2018-04-10T04:05:03.812Z,963.39
2018-04-10T04:06:03.724Z,963.41
2018-04-10T04:07:03.658Z,963.38
2018-04-10T04:08:03.572Z,963.39
2018-04-10T04:09:03.498Z,963.37
2018-04-10T04:10:03.415Z,963.41
2018-04-10T04:11:03.352Z,963.35
2018-04-10T04:12:03.263Z,963.36
2018-04-10T04:13:03.197Z,963.34
2018-04-10T04:14:03.112Z,963.37
2018-04-10T04:15:03.030Z,963.37
2018-04-10T04:16:02.958Z,963.34
2018-04-10T04:17:02.874Z,963.31
2018-04-10T04:18:02.790Z,963.37
2018-04-10T04:19:02.724Z,963.33
2018-04-10T04:20:02.639Z,963.34
2018-04-10T04:21:02.566Z,963.32
2018-04-10T04:22:02.482Z,963.31
2018-04-10T04:23:02.411Z,963.31
2018-04-10T04:24:02.327Z,963.38
2018-04-10T04:25:02.253Z,963.36
2018-04-10T04:26:02.193Z,963.36
2018-04-10T04:27:02.101Z,963.40
2018-04-10T04:28:02.017Z,963.41
2018-04-10T04:29:01.943Z,963.38
2018-04-10T04:30:01.856Z,963.42
2018-04-10T04:31:01.788Z,963.44
2018-04-10T04:32:01.722Z,963.47
2018-04-10T04:33:01.630Z,963.48
2018-04-10T04:34:01.548Z,963.49
2018-04-10T04:35:01.473Z,963.44
2018-04-10T04:36:01.392Z,963.43
2018-04-10T04:37:01.324Z,963.42
2018-04-10T04:38:01.230Z,963.42
2018-04-10T04:39:01.160Z,963.41
2018-04-10T04:40:01.077Z,963.39
2018-04-10T04:41:01.005Z,963.36
2018-04-10T04:42:00.921Z,963.37
2018-04-10T04:43:00.848Z,963.40
2018-04-10T04:44:00.763Z,963.41
2018-04-10T04:45:00.694Z,963.44
2018-04-10T04:46:00.615Z,963.44
2018-04-10T04:47:00.535Z,963.46
2018-04-10T04:48:00.452Z,963.48
2018-04-10T04:49:00.381Z,963.46
2018-04-10T04:50:00.297Z,963.52
2018-04-10T04:51:00.237Z,963.46
2018-04-10T04:52:00.137Z,963.48
2018-04-10T04:53:00.179Z,963.47
2018-04-10T04:53:59.984Z,963.46
2018-04-10T04:54:59.985Z,963.45
2018-04-10T04:55:59.827Z,963.43
2018-04-10T04:56:59.794Z,963.44
2018-04-10T04:57:59.671Z,963.44
2018-04-10T04:58:59.704Z,963.43
2018-04-10T04:59:59.514Z,963.41
2018-04-10T05:00:59.542Z,963.41
2018-04-10T05:01:59.364Z,963.37
2018-04-10T05:02:59.327Z,963.36
2018-04-10T05:03:59.201Z,963.37
2018-04-10T05:04:59.232Z,963.36
2018-04-10T05:05:59.047Z,963.42
2018-04-10T05:06:59.042Z,963.39
2018-04-10T05:07:58.898Z,963.37
2018-04-10T05:08:58.818Z,963.36
2018-04-10T05:09:58.732Z,963.40
2018-04-10T05:10:58.759Z,963.37
2018-04-10T05:11:58.577Z,963.38
2018-04-10T05:12:58.570Z,963.41
2018-04-10T05:13:58.419Z,963.38
2018-04-10T05:14:58.374Z,963.40
2018-04-10T05:15:58.264Z,963.39
2018-04-10T05:16:58.286Z,963.37
2018-04-10T05:17:58.104Z,963.38
2018-04-10T05:18:58.028Z,963.41
2018-04-10T05:19:57.961Z,963.37
2018-04-10T05:20:57.870Z,963.37
2018-04-10T05:21:57.904Z,963.36
2018-04-10T05:22:57.743Z,963.35
2018-04-10T05:23:57.712Z,963.33
2018-04-10T05:24:57.561Z,963.32
2018-04-10T05:25:57.521Z,963.28
2018-04-10T05:26:57.401Z,963.31
2018-04-10T05:27:57.325Z,963.27
2018-04-10T05:28:57.337Z,963.27
2018-04-10T05:29:57.189Z,963.24
2018-04-10T05:30:57.101Z,963.25
2018-04-10T05:31:57.011Z,963.24
2018-04-10T05:32:56.943Z,963.26
2018-04-10T05:33:56.857Z,963.28
2018-04-10T05:34:56.785Z,963.27
2018-04-10T05:35:56.699Z,963.24
2018-04-10T05:36:56.632Z,963.23
2018-04-10T05:37:56.542Z,963.25
2018-04-10T05:38:56.473Z,963.25
2018-04-10T05:39:56.388Z,963.28
2018-04-10T05:40:56.319Z,963.28
2018-04-10T05:41:56.232Z,963.31
2018-04-10T05:42:56.205Z,963.31
2018-04-10T05:43:56.074Z,963.32
2018-04-10T05:44:56.116Z,963.34
2018-04-10T05:45:55.922Z,963.36
2018-04-10T05:46:55.928Z,963.34
2018-04-10T05:47:55.765Z,963.33
2018-04-10T05:48:55.739Z,963.33
2018-04-10T05:49:55.606Z,963.31
2018-04-10T05:50:55.641Z,963.34
2018-04-10T05:51:55.454Z,963.32
2018-04-10T05:52:55.461Z,963.37
2018-04-10T05:53:55.296Z,963.39
2018-04-10T05:54:55.263Z,963.35
2018-04-10T05:55:55.135Z,963.33
2018-04-10T05:56:55.175Z,963.37
2018-04-10T05:57:54.982Z,963.38
2018-04-10T05:58:54.911Z,963.38
2018-04-10T05:59:54.827Z,963.41
2018-04-10T06:00:54.792Z,963.41
2018-04-10T06:01:54.667Z,963.40
2018-04-10T06:02:54.701Z,963.39
2018-04-10T06:03:54.513Z,963.37
2018-04-10T06:04:54.517Z,963.32
2018-04-10T06:05:54.357Z,963.37
2018-04-10T06:06:54.319Z,963.41
2018-04-10T06:07:54.200Z,963.39
2018-04-10T06:08:54.234Z,963.38
2018-04-10T06:09:54.075Z,963.38
2018-04-10T06:10:55.066Z,963.40
2018-04-10T06:11:53.892Z,963.38
2018-04-10T06:12:53.850Z,963.43
2018-04-10T06:13:53.736Z,963.43
2018-04-10T06:14:53.763Z,963.43
2018-04-10T06:15:53.573Z,963.41
2018-04-10T06:16:53.573Z,963.42
2018-04-10T06:17:53.420Z,963.42
2018-04-10T06:18:53.379Z,963.41
2018-04-10T06:19:53.267Z,963.46
2018-04-10T06:20:53.291Z,963.48
2018-04-10T06:21:53.113Z,963.49
2018-04-10T06:22:53.101Z,963.48
2018-04-10T06:23:52.960Z,963.56
2018-04-10T06:24:52.909Z,963.54
2018-04-10T06:25:52.801Z,963.55
2018-04-10T06:26:52.822Z,963.58
2018-04-10T06:27:52.646Z,963.62
2018-04-10T06:28:52.632Z,963.59
2018-04-10T06:29:52.492Z,963.64
2018-04-10T06:30:52.441Z,963.65
2018-04-10T06:31:52.339Z,963.65
2018-04-10T06:32:52.353Z,963.66
2018-04-10T06:33:52.180Z,963.70
2018-04-10T06:34:52.108Z,963.66
2018-04-10T06:35:52.027Z,963.68
2018-04-10T06:36:51.968Z,963.65
2018-04-10T06:37:51.872Z,963.67
2018-04-10T06:38:52.908Z,963.71
2018-04-10T06:39:51.721Z,963.67
2018-04-10T06:40:51.694Z,963.72
2018-04-10T06:41:51.561Z,963.73
2018-04-10T06:42:51.602Z,963.72
2018-04-10T06:43:51.408Z,963.71
2018-04-10T06:44:51.410Z,963.73
2018-04-10T06:45:51.249Z,963.74
2018-04-10T06:46:51.220Z,963.72
2018-04-10T06:47:51.098Z,963.72
2018-04-10T06:48:51.126Z,963.74
2018-04-10T06:49:50.947Z,963.74
2018-04-10T06:50:50.937Z,963.76
2018-04-10T06:51:50.788Z,963.80
2018-04-10T06:52:50.751Z,963.77
2018-04-10T06:53:50.635Z,963.78
2018-04-10T06:54:50.662Z,963.80
2018-04-10T06:55:50.480Z,963.78
2018-04-10T06:56:50.410Z,963.75
2018-04-10T06:57:50.331Z,963.75
2018-04-10T06:58:50.281Z,963.72
2018-04-10T06:59:50.174Z,963.74
2018-04-10T07:00:50.185Z,963.71
2018-04-10T07:01:50.021Z,963.70
2018-04-10T07:02:50.000Z,963.68
2018-04-10T07:03:49.865Z,963.69
2018-04-10T07:04:49.907Z,963.67
2018-04-10T07:05:49.711Z,963.66
2018-04-10T07:06:49.725Z,963.67
2018-04-10T07:07:49.555Z,963.68
2018-04-10T07:08:49.535Z,963.68
2018-04-10T07:09:49.406Z,963.70
2018-04-10T07:10:49.444Z,963.72
2018-04-10T07:11:49.251Z,963.76
2018-04-10T07:12:49.247Z,963.74
2018-04-10T07:13:49.099Z,963.75
2018-04-10T07:14:49.064Z,963.71
2018-04-10T07:15:48.944Z,963.66
2018-04-10T07:16:48.987Z,963.68
2018-04-10T07:17:48.794Z,963.64
2018-04-10T07:18:48.725Z,963.64
2018-04-10T07:19:48.648Z,963.64
2018-04-10T07:20:48.593Z,963.61
2018-04-10T07:21:48.488Z,963.59
2018-04-10T07:22:48.501Z,963.61
2018-04-10T07:23:48.334Z,963.57
2018-04-10T07:24:48.308Z,963.53
2018-04-10T07:25:48.185Z,963.54
2018-04-10T07:26:48.218Z,963.54
2018-04-10T07:27:48.052Z,963.53
2018-04-10T07:28:48.029Z,963.49
2018-04-10T07:29:47.879Z,963.52
2018-04-10T07:30:47.840Z,963.53
2018-04-10T07:31:47.734Z,963.53
2018-04-10T07:32:47.751Z,963.54
2018-04-10T07:33:47.576Z,963.58
2018-04-10T07:34:47.558Z,963.56
2018-04-10T07:35:47.425Z,963.55
2018-04-10T07:36:47.472Z,963.56
2018-04-10T07:37:47.281Z,963.57
2018-04-10T07:38:47.281Z,963.61
2018-04-10T07:39:47.175Z,963.57
2018-04-10T07:40:47.090Z,963.61
2018-04-10T07:41:46.971Z,963.60
2018-04-10T07:42:46.999Z,963.58
2018-04-10T07:43:46.824Z,963.58
2018-04-10T07:44:46.811Z,963.58
2018-04-10T07:45:46.676Z,963.51
2018-04-10T07:46:46.722Z,963.52
2018-04-10T07:47:46.525Z,963.54
2018-04-10T07:48:46.528Z,963.52
2018-04-10T07:49:46.375Z,963.54
2018-04-10T07:50:46.342Z,963.53
2018-04-10T07:51:46.232Z,963.57
2018-04-10T07:52:46.251Z,963.59
2018-04-10T07:53:46.079Z,963.56
2018-04-10T07:54:46.159Z,963.57
2018-04-10T07:55:45.930Z,963.59
2018-04-10T07:56:45.969Z,963.62
2018-04-10T07:57:45.782Z,963.62
2018-04-10T07:58:45.729Z,963.65
2018-04-10T07:59:45.631Z,963.66
2018-04-10T08:00:45.684Z,963.65
2018-04-10T08:01:45.487Z,963.63
2018-04-10T08:02:45.448Z,963.61
2018-04-10T08:03:45.332Z,963.61
2018-04-10T08:04:45.360Z,963.64
2018-04-10T08:05:45.188Z,963.63
2018-04-10T08:06:45.168Z,963.59
2018-04-10T08:07:45.042Z,963.63
2018-04-10T08:08:45.078Z,963.62
2018-04-10T08:09:44.894Z,963.65
2018-04-10T08:10:44.837Z,963.64
2018-04-10T08:11:44.748Z,963.67
2018-04-10T08:12:44.695Z,963.69
2018-04-10T08:13:44.602Z,963.67
2018-04-10T08:14:44.609Z,963.66
2018-04-10T08:15:44.459Z,963.68
2018-04-10T08:16:44.413Z,963.67
2018-04-10T08:17:44.314Z,963.67
2018-04-10T08:18:44.326Z,963.67
2018-04-10T08:19:44.167Z,963.69
2018-04-10T08:20:44.135Z,963.68
2018-04-10T08:21:44.025Z,963.67
2018-04-10T08:22:44.044Z,963.69
2018-04-10T08:23:43.875Z,963.72
2018-04-10T08:24:43.853Z,963.73
2018-04-10T08:25:43.730Z,963.74
2018-04-10T08:26:43.762Z,963.73
2018-04-10T08:27:43.591Z,963.75
2018-04-10T08:28:43.569Z,963.77
2018-04-10T08:29:43.441Z,963.75
2018-04-10T08:30:43.484Z,963.78
2018-04-10T08:31:43.298Z,963.79
2018-04-10T08:32:43.288Z,963.74
2018-04-10T08:33:43.154Z,963.75
2018-04-10T08:34:43.106Z,963.79
2018-04-10T08:35:43.011Z,963.76
2018-04-10T08:36:43.012Z,963.77
2018-04-10T08:37:42.870Z,963.74
2018-04-10T08:38:42.821Z,963.74
2018-04-10T08:39:42.723Z,963.72
2018-04-10T08:40:42.728Z,963.75
2018-04-10T08:41:42.577Z,963.79
2018-04-10T08:42:42.538Z,963.81
2018-04-10T08:43:42.437Z,963.80
2018-04-10T08:44:42.447Z,963.83
2018-04-10T08:45:42.288Z,963.79
2018-04-10T08:46:42.257Z,963.80
2018-04-10T08:47:42.148Z,963.82
2018-04-10T08:48:42.170Z,963.79
2018-04-10T08:49:42.007Z,963.80
2018-04-10T08:50:41.988Z,963.80
2018-04-10T08:51:41.859Z,963.78
2018-04-10T08:52:41.888Z,963.78
2018-04-10T08:53:41.722Z,963.76
2018-04-10T08:54:41.695Z,963.76
2018-04-10T08:55:41.576Z,963.78
2018-04-10T08:56:41.607Z,963.74
2018-04-10T08:57:41.436Z,963.73
2018-04-10T08:58:41.409Z,963.73
2018-04-10T08:59:41.292Z,963.71
2018-04-10T09:00:41.326Z,963.72
2018-04-10T09:01:41.151Z,963.70
2018-04-10T09:02:41.137Z,963.72
2018-04-10T09:03:41.012Z,963.67
2018-04-10T09:04:41.056Z,963.69
2018-04-10T09:05:40.865Z,963.61
2018-04-10T09:06:40.854Z,963.64
2018-04-10T09:07:40.724Z,963.65
2018-04-10T09:08:40.766Z,963.64
2018-04-10T09:09:40.580Z,963.59
2018-04-10T09:10:40.529Z,963.60
2018-04-10T09:11:40.442Z,963.61
2018-04-10T09:12:40.486Z,963.60
2018-04-10T09:13:40.298Z,963.56
2018-04-10T09:14:40.298Z,963.59
2018-04-10T09:15:40.155Z,963.57
2018-04-10T09:16:40.102Z,963.61
2018-04-10T09:17:40.022Z,963.63
2018-04-10T09:18:40.013Z,963.67
2018-04-10T09:19:39.876Z,963.65
2018-04-10T09:20:39.821Z,963.67
2018-04-10T09:21:39.734Z,963.64
2018-04-10T09:22:39.737Z,963.63
2018-04-10T09:23:39.590Z,963.62
2018-04-10T09:24:39.526Z,963.60
2018-04-10T09:25:39.450Z,963.60
2018-04-10T09:26:39.451Z,963.56
2018-04-10T09:27:39.303Z,963.58
2018-04-10T09:28:39.261Z,963.57
2018-04-10T09:29:39.169Z,963.57
2018-04-10T09:30:39.177Z,963.55
2018-04-10T09:31:39.028Z,963.55
2018-04-10T09:32:38.980Z,963.53
2018-04-10T09:33:38.881Z,963.51
2018-04-10T09:34:38.889Z,963.50
2018-04-10T09:35:38.743Z,963.49
2018-04-10T09:36:38.706Z,963.48
2018-04-10T09:37:38.601Z,963.48
2018-04-10T09:38:38.611Z,963.50
2018-04-10T09:39:38.459Z,963.43
2018-04-10T09:40:38.420Z,963.42
2018-04-10T09:41:38.327Z,963.46
2018-04-10T09:42:38.329Z,963.42
2018-04-10T09:43:38.187Z,963.44
2018-04-10T09:44:38.141Z,963.47
2018-04-10T09:45:38.045Z,963.45
2018-04-10T09:46:38.050Z,963.45
2018-04-10T09:47:37.899Z,963.44
2018-04-10T09:48:37.861Z,963.44
2018-04-10T09:49:37.764Z,963.40
2018-04-10T09:50:37.772Z,963.43
2018-04-10T09:51:37.625Z,963.40
2018-04-10T09:52:37.583Z,963.41
2018-04-10T09:53:37.483Z,963.39
2018-04-10T09:54:37.494Z,963.40
2018-04-10T09:55:37.342Z,963.42
2018-04-10T09:56:37.299Z,963.39
2018-04-10T09:57:37.204Z,963.40
2018-04-10T09:58:37.209Z,963.41
2018-04-10T09:59:37.073Z,963.41
2018-04-10T10:00:37.018Z,963.39
2018-04-10T10:01:36.926Z,963.40
2018-04-10T10:02:36.931Z,963.41
2018-04-10T10:03:36.787Z,963.42
2018-04-10T10:04:36.737Z,963.44
2018-04-10T10:05:36.651Z,963.38
2018-04-10T10:06:36.648Z,963.36
2018-04-10T10:07:36.518Z,963.40
2018-04-10T10:08:36.459Z,963.39
2018-04-10T10:09:36.374Z,963.36
2018-04-10T10:10:36.370Z,963.37
2018-04-10T10:11:36.233Z,963.33
2018-04-10T10:12:36.280Z,963.33
2018-04-10T10:13:36.089Z,963.31
2018-04-10T10:14:36.089Z,963.32
2018-04-10T10:15:35.958Z,963.29
2018-04-10T10:16:35.997Z,963.28
2018-04-10T10:17:35.815Z,963.26
2018-04-10T10:18:35.806Z,963.25
2018-04-10T10:19:35.678Z,963.23
2018-04-10T10:20:35.717Z,963.24
2018-04-10T10:21:35.538Z,963.25
2018-04-10T10:22:35.523Z,963.21
2018-04-10T10:23:35.401Z,963.20
2018-04-10T10:24:35.435Z,963.21
2018-04-10T10:25:35.265Z,963.16
2018-04-10T10:26:35.244Z,963.18
2018-04-10T10:27:35.126Z,963.18
2018-04-10T10:28:35.156Z,963.14
2018-04-10T10:29:34.998Z,963.17
2018-04-10T10:30:34.963Z,963.19
2018-04-10T10:31:34.852Z,963.18
2018-04-10T10:32:34.875Z,963.18
2018-04-10T10:33:34.714Z,963.19
2018-04-10T10:34:34.682Z,963.18
2018-04-10T10:35:34.581Z,963.19
2018-04-10T10:36:34.594Z,963.20
2018-04-10T10:37:34.451Z,963.18
2018-04-10T10:38:34.401Z,963.19
2018-04-10T10:39:34.304Z,963.20
2018-04-10T10:40:34.314Z,963.18
2018-04-10T10:41:34.172Z,963.20
2018-04-10T10:42:34.121Z,963.18
2018-04-10T10:43:34.030Z,963.18
2018-04-10T10:44:34.033Z,963.20
2018-04-10T10:45:33.900Z,963.20
2018-04-10T10:46:33.943Z,963.26
2018-04-10T10:47:33.758Z,963.26
2018-04-10T10:48:33.750Z,963.24
2018-04-10T10:49:33.625Z,963.28
2018-04-10T10:50:33.662Z,963.29
2018-04-10T10:51:33.484Z,963.28
2018-04-10T10:52:33.472Z,963.27
2018-04-10T10:53:33.351Z,963.29
2018-04-10T10:54:33.381Z,963.24
2018-04-10T10:55:33.211Z,963.23
2018-04-10T10:56:33.192Z,963.29
2018-04-10T10:57:33.079Z,963.23
2018-04-10T10:58:33.107Z,963.25
2018-04-10T10:59:32.943Z,963.26
2018-04-10T11:00:32.911Z,963.25
2018-04-10T11:01:32.810Z,963.25
2018-04-10T11:02:32.823Z,963.24
2018-04-10T11:03:32.684Z,963.25
2018-04-10T11:04:32.631Z,963.21
2018-04-10T11:05:32.532Z,963.21
2018-04-10T11:06:32.556Z,963.21
2018-04-10T11:07:32.402Z,963.23
2018-04-10T11:08:32.456Z,963.18
2018-04-10T11:09:32.277Z,963.17
2018-04-10T11:10:32.261Z,963.17
2018-04-10T11:11:32.126Z,963.21
2018-04-10T11:12:32.174Z,963.19
2018-04-10T11:13:31.991Z,963.18
2018-04-10T11:14:31.983Z,963.18
2018-04-10T11:15:31.855Z,963.18
2018-04-10T11:16:31.893Z,963.21
2018-04-10T11:17:31.722Z,963.21
2018-04-10T11:18:31.706Z,963.22
2018-04-10T11:19:31.582Z,963.24
2018-04-10T11:20:31.620Z,963.22
2018-04-10T11:21:31.454Z,963.22
2018-04-10T11:22:31.421Z,963.22
2018-04-10T11:23:31.316Z,963.26
2018-04-10T11:24:31.334Z,963.21
2018-04-10T11:25:31.180Z,963.23
2018-04-10T11:26:31.146Z,963.25
2018-04-10T11:27:31.047Z,963.17
2018-04-10T11:28:30.987Z,963.20
2018-04-10T11:29:30.912Z,963.17
2018-04-10T11:30:30.967Z,963.18
2018-04-10T11:31:30.779Z,963.17
2018-04-10T11:32:30.782Z,963.17
2018-04-10T11:33:30.646Z,963.15
2018-04-10T11:34:30.687Z,963.15
2018-04-10T11:35:30.508Z,963.15
2018-04-10T11:36:30.496Z,963.14
2018-04-10T11:37:30.380Z,963.15
2018-04-10T11:38:30.410Z,963.13
2018-04-10T11:39:30.246Z,963.14
2018-04-10T11:40:31.241Z,963.11
2018-04-10T11:41:30.110Z,963.14
2018-04-10T11:42:30.127Z,963.17
2018-04-10T11:43:29.980Z,963.14
2018-04-10T11:44:29.943Z,963.12
2018-04-10T11:45:29.845Z,963.13
2018-04-10T11:46:29.851Z,963.11
2018-04-10T11:47:29.709Z,963.15
2018-04-10T11:48:29.759Z,963.14
2018-04-10T11:49:29.576Z,963.12
2018-04-10T11:50:29.569Z,963.15
2018-04-10T11:51:29.439Z,963.12
2018-04-10T11:52:29.480Z,963.12
2018-04-10T11:53:29.311Z,963.15
2018-04-10T11:54:30.315Z,963.10
2018-04-10T11:55:29.174Z,963.05
2018-04-10T11:56:29.204Z,963.09
2018-04-10T11:57:29.040Z,963.07
2018-04-10T11:58:29.014Z,963.06
2018-04-10T11:59:28.909Z,963.10
2018-04-10T12:00:28.922Z,963.07
2018-04-10T12:01:28.774Z,963.04
2018-04-10T12:02:28.730Z,963.08
2018-04-10T12:03:28.638Z,963.06
2018-04-10T12:04:28.645Z,963.04
2018-04-10T12:05:28.508Z,963.03
2018-04-10T12:06:28.449Z,963.01
2018-04-10T12:07:28.368Z,963.01
2018-04-10T12:08:28.364Z,962.99
2018-04-10T12:09:28.235Z,962.99
2018-04-10T12:10:28.275Z,962.96
2018-04-10T12:11:28.103Z,963.00
2018-04-10T12:12:28.083Z,962.97
2018-04-10T12:13:27.982Z,962.99
2018-04-10T12:14:27.996Z,962.99
2018-04-10T12:15:27.838Z,962.99
2018-04-10T12:16:27.801Z,962.97
2018-04-10T12:17:27.699Z,962.98
2018-04-10T12:18:27.716Z,962.94
2018-04-10T12:19:27.563Z,962.92
2018-04-10T12:20:27.526Z,962.92
2018-04-10T12:21:27.434Z,962.94
2018-04-10T12:22:27.435Z,962.95
2018-04-10T12:23:27.301Z,962.94
2018-04-10T12:24:27.351Z,962.94
2018-04-10T12:25:27.158Z,962.95
2018-04-10T12:26:27.157Z,962.94
2018-04-10T12:27:27.028Z,962.95
2018-04-10T12:28:27.068Z,962.96
2018-04-10T12:29:26.891Z,962.97
2018-04-10T12:30:26.880Z,962.97
2018-04-10T12:31:26.756Z,962.93
2018-04-10T12:32:26.789Z,962.91
2018-04-10T12:33:26.619Z,962.89
2018-04-10T12:34:26.597Z,962.89
2018-04-10T12:35:26.491Z,962.86
2018-04-10T12:36:26.511Z,962.86
2018-04-10T12:37:26.353Z,962.87
2018-04-10T12:38:26.316Z,962.83
2018-04-10T12:39:26.223Z,962.83
2018-04-10T12:40:26.225Z,962.83
2018-04-10T12:41:26.085Z,962.84
2018-04-10T12:42:26.037Z,962.83
2018-04-10T12:43:25.946Z,962.85
2018-04-10T12:44:25.950Z,962.83
2018-04-10T12:45:25.811Z,962.83
2018-04-10T12:46:25.861Z,962.80
2018-04-10T12:47:25.675Z,962.83
2018-04-10T12:48:25.668Z,962.82
2018-04-10T12:49:25.550Z,962.82
2018-04-10T12:50:25.577Z,962.78
2018-04-10T12:51:25.406Z,962.78
2018-04-10T12:52:25.388Z,962.81
2018-04-10T12:53:25.267Z,962.80
2018-04-10T12:54:25.297Z,962.78
2018-04-10T12:55:25.133Z,962.79
2018-04-10T12:56:25.110Z,962.77
2018-04-10T12:57:25.003Z,962.80
2018-04-10T12:58:25.022Z,962.79
2018-04-10T12:59:24.860Z,962.79
2018-04-10T13:00:24.830Z,962.76
2018-04-10T13:01:24.725Z,962.78
2018-04-10T13:02:25.765Z,962.81
2018-04-10T13:03:24.588Z,962.80
2018-04-10T13:04:24.553Z,962.77
2018-04-10T13:05:24.453Z,962.77
2018-04-10T13:06:24.431Z,962.74
2018-04-10T13:07:24.317Z,962.78
2018-04-10T13:08:24.344Z,962.78